Miami, Florida
Current Conditions -  °F | °C
As of 8:53 AM on Monday 26 Jan 2015 (Local Time) from KMIA Reporting Station
Scattered Clouds Scattered Clouds  
Wind Chill: 66°   Ceiling: Unl
Heat Index: 66°   Visibility: 10mi
Dew Point: 56°   Wind: 8mph
Humidity: 70%   Direction: 210°SSW
Pressure: 29.97"   Gusts: NA
Location:  25.77°N, 80.19°W
Report Text: KMIA 261353Z 21007KT 10SM FEW050 SCT160 19/13 A2997 RMK AO2 SLP149 T01890133
Loading
Personal Weather Stations






























Interactive Weather Map New forecast layout! Learn more

10-Day Weather Forecast

Advertisements
Track Severe Weather on mobile